sensor_id;sensor_type;location;lat;lon;timestamp;P1;durP1;ratioP1;P2;durP2;ratioP2
76978;SDS011;65911;47.502;19.148;2023-09-08T00:02:52;7.95;;;3.63;;
76978;SDS011;65911;47.502;19.148;2023-09-08T00:05:55;7.18;;;3.45;;
76978;SDS011;65911;47.502;19.148;2023-09-08T00:08:57;7.45;;;3.40;;
76978;SDS011;65911;47.502;19.148;2023-09-08T00:11:59;5.30;;;2.97;;
76978;SDS011;65911;47.502;19.148;2023-09-08T00:15:01;5.93;;;3.35;;
76978;SDS011;65911;47.502;19.148;2023-09-08T00:18:04;5.97;;;2.92;;
76978;SDS011;65911;47.502;19.148;2023-09-08T00:21:06;6.00;;;3.40;;
76978;SDS011;65911;47.502;19.148;2023-09-08T00:24:08;7.20;;;3.00;;
76978;SDS011;65911;47.502;19.148;2023-09-08T00:27:11;6.88;;;3.60;;
76978;SDS011;65911;47.502;19.148;2023-09-08T00:30:13;14.52;;;3.97;;
76978;SDS011;65911;47.502;19.148;2023-09-08T00:33:16;5.15;;;3.00;;
76978;SDS011;65911;47.502;19.148;2023-09-08T00:36:18;7.10;;;3.40;;
76978;SDS011;65911;47.502;19.148;2023-09-08T00:39:21;4.90;;;3.00;;
76978;SDS011;65911;47.502;19.148;2023-09-08T00:42:23;5.73;;;3.30;;
76978;SDS011;65911;47.502;19.148;2023-09-08T00:45:26;4.95;;;3.13;;
76978;SDS011;65911;47.502;19.148;2023-09-08T00:48:31;9.57;;;3.17;;
76978;SDS011;65911;47.502;19.148;2023-09-08T00:51:35;8.10;;;3.40;;
76978;SDS011;65911;47.502;19.148;2023-09-08T00:54:39;4.15;;;2.88;;
76978;SDS011;65911;47.502;19.148;2023-09-08T00:57:41;5.53;;;3.38;;
76978;SDS011;65911;47.502;19.148;2023-09-08T01:00:44;4.93;;;3.25;;
76978;SDS011;65911;47.502;19.148;2023-09-08T01:03:46;5.40;;;3.13;;
76978;SDS011;65911;47.502;19.148;2023-09-08T01:06:49;5.88;;;2.95;;
76978;SDS011;65911;47.502;19.148;2023-09-08T01:09:51;4.68;;;3.38;;
76978;SDS011;65911;47.502;19.148;2023-09-08T01:12:54;6.37;;;3.00;;
76978;SDS011;65911;47.502;19.148;2023-09-08T01:15:56;6.18;;;3.30;;
76978;SDS011;65911;47.502;19.148;2023-09-08T01:18:58;6.20;;;3.22;;
76978;SDS011;65911;47.502;19.148;2023-09-08T01:25:18;6.20;;;3.15;;
76978;SDS011;65911;47.502;19.148;2023-09-08T01:28:26;7.25;;;3.75;;
76978;SDS011;65911;47.502;19.148;2023-09-08T01:31:28;4.97;;;3.38;;
76978;SDS011;65911;47.502;19.148;2023-09-08T01:34:33;5.72;;;3.40;;
76978;SDS011;65911;47.502;19.148;2023-09-08T01:37:40;5.43;;;3.38;;
76978;SDS011;65911;47.502;19.148;2023-09-08T01:40:44;5.05;;;3.60;;
76978;SDS011;65911;47.502;19.148;2023-09-08T01:43:46;7.20;;;3.43;;
76978;SDS011;65911;47.502;19.148;2023-09-08T01:46:48;5.70;;;3.42;;
76978;SDS011;65911;47.502;19.148;2023-09-08T01:49:53;7.93;;;3.60;;
76978;SDS011;65911;47.502;19.148;2023-09-08T01:52:55;6.27;;;3.30;;
76978;SDS011;65911;47.502;19.148;2023-09-08T01:55:58;6.65;;;3.63;;
76978;SDS011;65911;47.502;19.148;2023-09-08T01:59:00;7.10;;;3.47;;
76978;SDS011;65911;47.502;19.148;2023-09-08T02:02:03;5.38;;;3.63;;
76978;SDS011;65911;47.502;19.148;2023-09-08T02:05:05;5.70;;;3.55;;
76978;SDS011;65911;47.502;19.148;2023-09-08T02:08:08;6.28;;;3.80;;
76978;SDS011;65911;47.502;19.148;2023-09-08T02:11:10;6.72;;;4.10;;
76978;SDS011;65911;47.502;19.148;2023-09-08T02:14:13;6.03;;;3.57;;
76978;SDS011;65911;47.502;19.148;2023-09-08T02:17:15;5.10;;;3.63;;
76978;SDS011;65911;47.502;19.148;2023-09-08T02:20:19;4.72;;;3.38;;
76978;SDS011;65911;47.502;19.148;2023-09-08T02:23:21;5.47;;;3.40;;
76978;SDS011;65911;47.502;19.148;2023-09-08T02:26:23;5.60;;;3.42;;
76978;SDS011;65911;47.502;19.148;2023-09-08T02:29:28;5.88;;;3.80;;
76978;SDS011;65911;47.502;19.148;2023-09-08T02:32:31;6.57;;;3.80;;
76978;SDS011;65911;47.502;19.148;2023-09-08T02:35:35;6.63;;;3.78;;
76978;SDS011;65911;47.502;19.148;2023-09-08T02:38:39;6.72;;;3.92;;
76978;SDS011;65911;47.502;19.148;2023-09-08T02:41:42;7.30;;;3.60;;
76978;SDS011;65911;47.502;19.148;2023-09-08T02:44:44;9.60;;;3.70;;
76978;SDS011;65911;47.502;19.148;2023-09-08T02:47:46;6.28;;;3.55;;
76978;SDS011;65911;47.502;19.148;2023-09-08T02:50:49;5.00;;;3.70;;
76978;SDS011;65911;47.502;19.148;2023-09-08T02:53:51;6.80;;;3.73;;
76978;SDS011;65911;47.502;19.148;2023-09-08T02:56:53;6.97;;;3.72;;
76978;SDS011;65911;47.502;19.148;2023-09-08T02:59:56;6.93;;;3.78;;
76978;SDS011;65911;47.502;19.148;2023-09-08T03:02:58;5.30;;;3.55;;
76978;SDS011;65911;47.502;19.148;2023-09-08T03:06:01;7.00;;;3.50;;
76978;SDS011;65911;47.502;19.148;2023-09-08T03:09:05;6.55;;;3.90;;
76978;SDS011;65911;47.502;19.148;2023-09-08T03:12:07;7.38;;;4.10;;
76978;SDS011;65911;47.502;19.148;2023-09-08T03:15:10;8.33;;;3.63;;
76978;SDS011;65911;47.502;19.148;2023-09-08T03:18:12;7.38;;;3.60;;
76978;SDS011;65911;47.502;19.148;2023-09-08T03:21:17;5.43;;;3.80;;
76978;SDS011;65911;47.502;19.148;2023-09-08T03:24:20;7.27;;;4.10;;
76978;SDS011;65911;47.502;19.148;2023-09-08T03:27:22;5.88;;;3.92;;
76978;SDS011;65911;47.502;19.148;2023-09-08T03:30:24;8.82;;;3.92;;
76978;SDS011;65911;47.502;19.148;2023-09-08T03:33:26;6.82;;;3.80;;
76978;SDS011;65911;47.502;19.148;2023-09-08T03:36:29;6.47;;;3.70;;
76978;SDS011;65911;47.502;19.148;2023-09-08T03:39:33;5.60;;;3.55;;
76978;SDS011;65911;47.502;19.148;2023-09-08T03:42:36;6.15;;;4.00;;
76978;SDS011;65911;47.502;19.148;2023-09-08T03:45:38;8.33;;;4.20;;
76978;SDS011;65911;47.502;19.148;2023-09-08T03:48:40;8.80;;;3.90;;
76978;SDS011;65911;47.502;19.148;2023-09-08T03:51:43;9.13;;;4.22;;
76978;SDS011;65911;47.502;19.148;2023-09-08T03:54:45;5.77;;;3.80;;
76978;SDS011;65911;47.502;19.148;2023-09-08T03:57:48;5.13;;;3.70;;
76978;SDS011;65911;47.502;19.148;2023-09-08T04:00:50;7.68;;;3.83;;
76978;SDS011;65911;47.502;19.148;2023-09-08T04:03:52;8.07;;;4.10;;
76978;SDS011;65911;47.502;19.148;2023-09-08T04:06:55;9.07;;;3.90;;
76978;SDS011;65911;47.502;19.148;2023-09-08T04:09:57;7.30;;;3.90;;
76978;SDS011;65911;47.502;19.148;2023-09-08T04:12:59;6.80;;;3.67;;
76978;SDS011;65911;47.502;19.148;2023-09-08T04:16:02;7.10;;;3.70;;
76978;SDS011;65911;47.502;19.148;2023-09-08T04:19:04;9.00;;;3.97;;
76978;SDS011;65911;47.502;19.148;2023-09-08T04:22:06;5.72;;;3.17;;
76978;SDS011;65911;47.502;19.148;2023-09-08T04:25:09;7.83;;;3.47;;
76978;SDS011;65911;47.502;19.148;2023-09-08T04:28:13;5.00;;;3.47;;
76978;SDS011;65911;47.502;19.148;2023-09-08T04:31:15;6.95;;;3.95;;
76978;SDS011;65911;47.502;19.148;2023-09-08T04:34:20;9.85;;;4.00;;
76978;SDS011;65911;47.502;19.148;2023-09-08T04:37:22;7.72;;;3.83;;
76978;SDS011;65911;47.502;19.148;2023-09-08T04:40:41;6.88;;;3.65;;
76978;SDS011;65911;47.502;19.148;2023-09-08T04:43:46;6.30;;;3.78;;
76978;SDS011;65911;47.502;19.148;2023-09-08T04:46:49;10.37;;;4.40;;
76978;SDS011;65911;47.502;19.148;2023-09-08T04:49:51;7.10;;;4.50;;
76978;SDS011;65911;47.502;19.148;2023-09-08T04:52:53;8.48;;;3.90;;
76978;SDS011;65911;47.502;19.148;2023-09-08T04:55:56;10.57;;;4.20;;
76978;SDS011;65911;47.502;19.148;2023-09-08T04:58:58;6.95;;;3.58;;
76978;SDS011;65911;47.502;19.148;2023-09-08T05:02:03;6.00;;;3.90;;
76978;SDS011;65911;47.502;19.148;2023-09-08T05:05:05;6.45;;;3.72;;
76978;SDS011;65911;47.502;19.148;2023-09-08T05:08:08;5.82;;;3.72;;
76978;SDS011;65911;47.502;19.148;2023-09-08T05:11:10;7.60;;;4.20;;
76978;SDS011;65911;47.502;19.148;2023-09-08T05:14:12;6.22;;;3.75;;
76978;SDS011;65911;47.502;19.148;2023-09-08T05:17:15;7.57;;;3.83;;
76978;SDS011;65911;47.502;19.148;2023-09-08T05:20:17;8.40;;;3.92;;
76978;SDS011;65911;47.502;19.148;2023-09-08T05:23:20;9.80;;;3.70;;
76978;SDS011;65911;47.502;19.148;2023-09-08T05:26:22;7.40;;;3.83;;
76978;SDS011;65911;47.502;19.148;2023-09-08T05:29:24;5.95;;;3.95;;
76978;SDS011;65911;47.502;19.148;2023-09-08T05:32:28;9.18;;;3.97;;
76978;SDS011;65911;47.502;19.148;2023-09-08T05:35:30;6.43;;;4.10;;
76978;SDS011;65911;47.502;19.148;2023-09-08T05:38:32;6.07;;;4.00;;
76978;SDS011;65911;47.502;19.148;2023-09-08T05:41:35;7.63;;;4.05;;
76978;SDS011;65911;47.502;19.148;2023-09-08T05:44:38;7.78;;;4.20;;
76978;SDS011;65911;47.502;19.148;2023-09-08T05:47:41;6.80;;;3.40;;
76978;SDS011;65911;47.502;19.148;2023-09-08T05:50:44;5.85;;;3.58;;
76978;SDS011;65911;47.502;19.148;2023-09-08T05:53:47;7.70;;;3.80;;
76978;SDS011;65911;47.502;19.148;2023-09-08T05:56:56;8.27;;;4.17;;
76978;SDS011;65911;47.502;19.148;2023-09-08T05:59:59;6.80;;;3.80;;
76978;SDS011;65911;47.502;19.148;2023-09-08T06:03:01;7.25;;;3.75;;
76978;SDS011;65911;47.502;19.148;2023-09-08T06:06:05;8.75;;;3.83;;
76978;SDS011;65911;47.502;19.148;2023-09-08T06:09:08;8.65;;;4.15;;
76978;SDS011;65911;47.502;19.148;2023-09-08T06:12:22;7.32;;;4.00;;
76978;SDS011;65911;47.502;19.148;2023-09-08T06:15:27;6.97;;;3.72;;
76978;SDS011;65911;47.502;19.148;2023-09-08T06:18:45;7.27;;;3.87;;
76978;SDS011;65911;47.502;19.148;2023-09-08T06:21:51;9.23;;;4.07;;
76978;SDS011;65911;47.502;19.148;2023-09-08T06:24:54;9.40;;;3.70;;
76978;SDS011;65911;47.502;19.148;2023-09-08T06:27:56;6.80;;;3.67;;
76978;SDS011;65911;47.502;19.148;2023-09-08T06:30:59;8.07;;;3.72;;
76978;SDS011;65911;47.502;19.148;2023-09-08T06:34:01;7.85;;;3.78;;
76978;SDS011;65911;47.502;19.148;2023-09-08T06:37:04;6.15;;;3.50;;
76978;SDS011;65911;47.502;19.148;2023-09-08T06:40:08;9.02;;;4.07;;
76978;SDS011;65911;47.502;19.148;2023-09-08T06:43:13;5.20;;;3.58;;
76978;SDS011;65911;47.502;19.148;2023-09-08T06:46:25;6.07;;;3.65;;
76978;SDS011;65911;47.502;19.148;2023-09-08T06:49:35;5.77;;;3.70;;
76978;SDS011;65911;47.502;19.148;2023-09-08T06:52:45;8.65;;;4.00;;
76978;SDS011;65911;47.502;19.148;2023-09-08T06:55:51;6.15;;;3.42;;
76978;SDS011;65911;47.502;19.148;2023-09-08T06:58:54;7.27;;;3.77;;
76978;SDS011;65911;47.502;19.148;2023-09-08T07:01:57;5.35;;;3.50;;
76978;SDS011;65911;47.502;19.148;2023-09-08T07:05:06;7.80;;;3.70;;
76978;SDS011;65911;47.502;19.148;2023-09-08T07:08:15;8.90;;;4.00;;
76978;SDS011;65911;47.502;19.148;2023-09-08T07:11:25;8.32;;;3.60;;
76978;SDS011;65911;47.502;19.148;2023-09-08T07:14:39;6.03;;;3.95;;
76978;SDS011;65911;47.502;19.148;2023-09-08T07:17:43;7.38;;;4.00;;
76978;SDS011;65911;47.502;19.148;2023-09-08T07:20:46;7.07;;;3.90;;
76978;SDS011;65911;47.502;19.148;2023-09-08T07:23:50;7.28;;;3.65;;
76978;SDS011;65911;47.502;19.148;2023-09-08T07:26:53;7.53;;;4.28;;
76978;SDS011;65911;47.502;19.148;2023-09-08T07:29:57;8.13;;;4.00;;
76978;SDS011;65911;47.502;19.148;2023-09-08T07:33:00;7.43;;;3.88;;
76978;SDS011;65911;47.502;19.148;2023-09-08T07:36:03;9.82;;;4.05;;
76978;SDS011;65911;47.502;19.148;2023-09-08T07:39:09;6.40;;;3.92;;
76978;SDS011;65911;47.502;19.148;2023-09-08T07:42:12;7.00;;;3.75;;
76978;SDS011;65911;47.502;19.148;2023-09-08T07:45:14;7.25;;;3.80;;
76978;SDS011;65911;47.502;19.148;2023-09-08T07:48:16;7.90;;;3.75;;
76978;SDS011;65911;47.502;19.148;2023-09-08T07:51:19;6.80;;;3.63;;
76978;SDS011;65911;47.502;19.148;2023-09-08T07:54:21;9.32;;;3.75;;
76978;SDS011;65911;47.502;19.148;2023-09-08T07:57:23;7.82;;;3.60;;
76978;SDS011;65911;47.502;19.148;2023-09-08T08:00:26;9.33;;;3.80;;
76978;SDS011;65911;47.502;19.148;2023-09-08T08:03:30;7.20;;;3.90;;
76978;SDS011;65911;47.502;19.148;2023-09-08T08:06:38;9.02;;;4.07;;
76978;SDS011;65911;47.502;19.148;2023-09-08T08:09:42;8.20;;;3.78;;
76978;SDS011;65911;47.502;19.148;2023-09-08T08:12:47;7.93;;;4.03;;
76978;SDS011;65911;47.502;19.148;2023-09-08T08:15:50;8.90;;;4.07;;
76978;SDS011;65911;47.502;19.148;2023-09-08T08:18:52;6.38;;;3.88;;
76978;SDS011;65911;47.502;19.148;2023-09-08T08:21:55;5.20;;;3.40;;
76978;SDS011;65911;47.502;19.148;2023-09-08T08:24:59;4.90;;;3.42;;
76978;SDS011;65911;47.502;19.148;2023-09-08T08:28:01;6.28;;;3.72;;
76978;SDS011;65911;47.502;19.148;2023-09-08T08:31:04;6.87;;;3.73;;
76978;SDS011;65911;47.502;19.148;2023-09-08T08:34:07;8.98;;;4.13;;
76978;SDS011;65911;47.502;19.148;2023-09-08T08:37:11;6.30;;;3.17;;
76978;SDS011;65911;47.502;19.148;2023-09-08T08:40:15;7.15;;;3.90;;
76978;SDS011;65911;47.502;19.148;2023-09-08T08:43:17;6.03;;;3.72;;
76978;SDS011;65911;47.502;19.148;2023-09-08T08:46:21;6.72;;;3.70;;
76978;SDS011;65911;47.502;19.148;2023-09-08T08:49:25;6.80;;;3.22;;
76978;SDS011;65911;47.502;19.148;2023-09-08T08:52:30;6.63;;;3.50;;
76978;SDS011;65911;47.502;19.148;2023-09-08T08:55:39;6.40;;;4.00;;
76978;SDS011;65911;47.502;19.148;2023-09-08T08:59:13;10.07;;;3.92;;
76978;SDS011;65911;47.502;19.148;2023-09-08T09:02:25;8.97;;;3.90;;
76978;SDS011;65911;47.502;19.148;2023-09-08T09:05:35;7.07;;;3.22;;
76978;SDS011;65911;47.502;19.148;2023-09-08T09:08:38;7.95;;;3.50;;
76978;SDS011;65911;47.502;19.148;2023-09-08T09:11:45;5.78;;;3.53;;
76978;SDS011;65911;47.502;19.148;2023-09-08T09:14:47;5.13;;;3.60;;
76978;SDS011;65911;47.502;19.148;2023-09-08T09:18:04;7.60;;;3.60;;
76978;SDS011;65911;47.502;19.148;2023-09-08T09:21:08;5.65;;;3.40;;
76978;SDS011;65911;47.502;19.148;2023-09-08T09:24:19;5.43;;;3.40;;
76978;SDS011;65911;47.502;19.148;2023-09-08T09:27:31;5.38;;;3.60;;
76978;SDS011;65911;47.502;19.148;2023-09-08T09:30:46;7.15;;;3.40;;
76978;SDS011;65911;47.502;19.148;2023-09-08T09:34:03;5.80;;;3.63;;
76978;SDS011;65911;47.502;19.148;2023-09-08T09:37:11;6.65;;;3.53;;
76978;SDS011;65911;47.502;19.148;2023-09-08T09:40:14;5.50;;;3.67;;
76978;SDS011;65911;47.502;19.148;2023-09-08T09:43:20;6.60;;;3.65;;
76978;SDS011;65911;47.502;19.148;2023-09-08T09:46:28;8.52;;;3.78;;
76978;SDS011;65911;47.502;19.148;2023-09-08T09:49:32;7.70;;;3.65;;
76978;SDS011;65911;47.502;19.148;2023-09-08T09:52:34;6.97;;;3.60;;
76978;SDS011;65911;47.502;19.148;2023-09-08T09:55:42;8.07;;;3.20;;
76978;SDS011;65911;47.502;19.148;2023-09-08T09:58:49;4.97;;;3.17;;
76978;SDS011;65911;47.502;19.148;2023-09-08T10:02:04;6.93;;;3.10;;
76978;SDS011;65911;47.502;19.148;2023-09-08T10:05:12;7.03;;;3.43;;
76978;SDS011;65911;47.502;19.148;2023-09-08T10:08:26;4.60;;;2.92;;
76978;SDS011;65911;47.502;19.148;2023-09-08T10:11:48;7.00;;;3.17;;
76978;SDS011;65911;47.502;19.148;2023-09-08T10:14:51;7.00;;;3.38;;
76978;SDS011;65911;47.502;19.148;2023-09-08T10:17:56;8.88;;;3.35;;
76978;SDS011;65911;47.502;19.148;2023-09-08T10:21:03;5.18;;;3.05;;
76978;SDS011;65911;47.502;19.148;2023-09-08T10:24:24;8.57;;;3.42;;
76978;SDS011;65911;47.502;19.148;2023-09-08T10:27:27;5.67;;;2.90;;
76978;SDS011;65911;47.502;19.148;2023-09-08T10:30:29;6.47;;;3.08;;
76978;SDS011;65911;47.502;19.148;2023-09-08T10:33:34;5.55;;;3.00;;
76978;SDS011;65911;47.502;19.148;2023-09-08T10:36:37;5.70;;;3.00;;
76978;SDS011;65911;47.502;19.148;2023-09-08T10:39:40;4.75;;;3.13;;
76978;SDS011;65911;47.502;19.148;2023-09-08T10:42:44;7.55;;;3.33;;
76978;SDS011;65911;47.502;19.148;2023-09-08T10:45:46;6.85;;;3.33;;
76978;SDS011;65911;47.502;19.148;2023-09-08T10:48:50;7.18;;;3.70;;
76978;SDS011;65911;47.502;19.148;2023-09-08T10:51:52;7.85;;;3.22;;
76978;SDS011;65911;47.502;19.148;2023-09-08T10:55:12;6.25;;;3.28;;
76978;SDS011;65911;47.502;19.148;2023-09-08T10:58:17;6.47;;;3.23;;
76978;SDS011;65911;47.502;19.148;2023-09-08T11:01:54;4.97;;;3.05;;
76978;SDS011;65911;47.502;19.148;2023-09-08T11:05:07;6.07;;;2.90;;
76978;SDS011;65911;47.502;19.148;2023-09-08T11:08:12;5.53;;;3.13;;
76978;SDS011;65911;47.502;19.148;2023-09-08T11:11:16;5.88;;;3.20;;
76978;SDS011;65911;47.502;19.148;2023-09-08T11:14:22;3.97;;;2.72;;
76978;SDS011;65911;47.502;19.148;2023-09-08T11:17:25;8.15;;;3.13;;
76978;SDS011;65911;47.502;19.148;2023-09-08T11:20:28;5.18;;;3.20;;
76978;SDS011;65911;47.502;19.148;2023-09-08T11:23:37;6.93;;;3.45;;
76978;SDS011;65911;47.502;19.148;2023-09-08T11:26:40;6.57;;;3.10;;
76978;SDS011;65911;47.502;19.148;2023-09-08T11:29:43;4.47;;;2.90;;
76978;SDS011;65911;47.502;19.148;2023-09-08T11:32:46;4.07;;;3.10;;
76978;SDS011;65911;47.502;19.148;2023-09-08T11:35:48;4.03;;;2.80;;
76978;SDS011;65911;47.502;19.148;2023-09-08T11:38:50;6.67;;;2.97;;
76978;SDS011;65911;47.502;19.148;2023-09-08T11:41:54;5.97;;;2.95;;
76978;SDS011;65911;47.502;19.148;2023-09-08T11:44:56;4.13;;;3.00;;
76978;SDS011;65911;47.502;19.148;2023-09-08T11:47:59;4.03;;;2.60;;
76978;SDS011;65911;47.502;19.148;2023-09-08T11:51:01;4.28;;;2.90;;
76978;SDS011;65911;47.502;19.148;2023-09-08T11:54:04;6.10;;;3.00;;
76978;SDS011;65911;47.502;19.148;2023-09-08T11:57:07;5.55;;;2.58;;
76978;SDS011;65911;47.502;19.148;2023-09-08T12:00:12;3.87;;;2.50;;
76978;SDS011;65911;47.502;19.148;2023-09-08T12:03:19;4.20;;;2.88;;
76978;SDS011;65911;47.502;19.148;2023-09-08T12:06:27;5.10;;;2.88;;
76978;SDS011;65911;47.502;19.148;2023-09-08T12:09:30;5.97;;;3.13;;
76978;SDS011;65911;47.502;19.148;2023-09-08T12:12:43;5.53;;;2.47;;
76978;SDS011;65911;47.502;19.148;2023-09-08T12:15:50;5.07;;;2.70;;
76978;SDS011;65911;47.502;19.148;2023-09-08T12:18:52;5.35;;;2.95;;
76978;SDS011;65911;47.502;19.148;2023-09-08T12:21:55;3.97;;;2.75;;
76978;SDS011;65911;47.502;19.148;2023-09-08T12:24:58;6.05;;;2.70;;
76978;SDS011;65911;47.502;19.148;2023-09-08T12:28:04;5.45;;;2.70;;
76978;SDS011;65911;47.502;19.148;2023-09-08T12:31:10;6.20;;;3.00;;
76978;SDS011;65911;47.502;19.148;2023-09-08T12:34:15;5.13;;;3.05;;
76978;SDS011;65911;47.502;19.148;2023-09-08T12:37:24;5.65;;;3.25;;
76978;SDS011;65911;47.502;19.148;2023-09-08T12:40:30;5.77;;;3.00;;
76978;SDS011;65911;47.502;19.148;2023-09-08T12:43:34;6.43;;;2.90;;
76978;SDS011;65911;47.502;19.148;2023-09-08T12:46:37;6.30;;;2.95;;
76978;SDS011;65911;47.502;19.148;2023-09-08T12:49:39;3.85;;;2.80;;
76978;SDS011;65911;47.502;19.148;2023-09-08T12:52:42;4.70;;;2.70;;
76978;SDS011;65911;47.502;19.148;2023-09-08T12:55:44;6.18;;;2.95;;
76978;SDS011;65911;47.502;19.148;2023-09-08T12:58:46;3.97;;;2.50;;
76978;SDS011;65911;47.502;19.148;2023-09-08T13:01:48;5.07;;;3.03;;
76978;SDS011;65911;47.502;19.148;2023-09-08T13:04:51;3.78;;;2.90;;
76978;SDS011;65911;47.502;19.148;2023-09-08T13:07:53;4.57;;;2.70;;
76978;SDS011;65911;47.502;19.148;2023-09-08T13:10:55;4.90;;;3.17;;
76978;SDS011;65911;47.502;19.148;2023-09-08T13:13:58;5.32;;;2.50;;
76978;SDS011;65911;47.502;19.148;2023-09-08T13:17:00;3.80;;;2.63;;
76978;SDS011;65911;47.502;19.148;2023-09-08T13:20:03;4.82;;;3.00;;
76978;SDS011;65911;47.502;19.148;2023-09-08T13:23:06;4.32;;;2.90;;
76978;SDS011;65911;47.502;19.148;2023-09-08T13:26:08;6.35;;;2.42;;
76978;SDS011;65911;47.502;19.148;2023-09-08T13:29:10;4.88;;;2.80;;
76978;SDS011;65911;47.502;19.148;2023-09-08T13:32:12;4.00;;;2.50;;
76978;SDS011;65911;47.502;19.148;2023-09-08T13:35:15;3.00;;;2.28;;
76978;SDS011;65911;47.502;19.148;2023-09-08T13:38:17;4.63;;;2.55;;
76978;SDS011;65911;47.502;19.148;2023-09-08T13:41:19;4.30;;;2.90;;
76978;SDS011;65911;47.502;19.148;2023-09-08T13:44:23;5.05;;;2.75;;
76978;SDS011;65911;47.502;19.148;2023-09-08T13:47:25;3.83;;;2.78;;
76978;SDS011;65911;47.502;19.148;2023-09-08T13:50:28;4.45;;;2.38;;
76978;SDS011;65911;47.502;19.148;2023-09-08T13:53:32;6.23;;;2.90;;
76978;SDS011;65911;47.502;19.148;2023-09-08T13:56:38;4.68;;;2.35;;
76978;SDS011;65911;47.502;19.148;2023-09-08T13:59:45;4.47;;;2.90;;
76978;SDS011;65911;47.502;19.148;2023-09-08T14:02:48;4.40;;;2.50;;
76978;SDS011;65911;47.502;19.148;2023-09-08T14:05:52;4.23;;;3.03;;
76978;SDS011;65911;47.502;19.148;2023-09-08T14:08:56;4.68;;;2.67;;
76978;SDS011;65911;47.502;19.148;2023-09-08T14:12:01;6.53;;;2.70;;
76978;SDS011;65911;47.502;19.148;2023-09-08T14:15:08;6.45;;;3.17;;
76978;SDS011;65911;47.502;19.148;2023-09-08T14:18:11;3.92;;;2.90;;
76978;SDS011;65911;47.502;19.148;2023-09-08T14:21:13;5.38;;;3.13;;
76978;SDS011;65911;47.502;19.148;2023-09-08T14:24:16;6.78;;;3.17;;
76978;SDS011;65911;47.502;19.148;2023-09-08T14:27:18;4.37;;;2.97;;
76978;SDS011;65911;47.502;19.148;2023-09-08T14:30:20;4.10;;;2.75;;
76978;SDS011;65911;47.502;19.148;2023-09-08T14:33:22;6.07;;;3.00;;
76978;SDS011;65911;47.502;19.148;2023-09-08T14:36:25;4.75;;;3.00;;
76978;SDS011;65911;47.502;19.148;2023-09-08T14:39:27;5.03;;;2.60;;
76978;SDS011;65911;47.502;19.148;2023-09-08T14:42:29;4.88;;;2.80;;
76978;SDS011;65911;47.502;19.148;2023-09-08T14:45:32;6.38;;;2.83;;
76978;SDS011;65911;47.502;19.148;2023-09-08T14:48:34;4.57;;;2.90;;
76978;SDS011;65911;47.502;19.148;2023-09-08T14:51:38;5.15;;;2.72;;
76978;SDS011;65911;47.502;19.148;2023-09-08T14:54:40;5.32;;;2.55;;
76978;SDS011;65911;47.502;19.148;2023-09-08T14:57:42;5.60;;;3.10;;
76978;SDS011;65911;47.502;19.148;2023-09-08T15:00:44;4.93;;;3.23;;
76978;SDS011;65911;47.502;19.148;2023-09-08T15:03:48;3.22;;;2.58;;
76978;SDS011;65911;47.502;19.148;2023-09-08T15:06:50;4.35;;;2.78;;
76978;SDS011;65911;47.502;19.148;2023-09-08T15:09:52;5.15;;;3.22;;
76978;SDS011;65911;47.502;19.148;2023-09-08T15:12:55;8.90;;;2.90;;
76978;SDS011;65911;47.502;19.148;2023-09-08T15:15:57;4.40;;;2.67;;
76978;SDS011;65911;47.502;19.148;2023-09-08T15:19:01;5.10;;;2.70;;
76978;SDS011;65911;47.502;19.148;2023-09-08T15:22:03;3.55;;;2.80;;
76978;SDS011;65911;47.502;19.148;2023-09-08T15:25:05;3.75;;;2.70;;
76978;SDS011;65911;47.502;19.148;2023-09-08T15:28:07;6.18;;;2.85;;
76978;SDS011;65911;47.502;19.148;2023-09-08T15:31:10;5.85;;;3.25;;
76978;SDS011;65911;47.502;19.148;2023-09-08T15:34:12;5.57;;;3.27;;
76978;SDS011;65911;47.502;19.148;2023-09-08T15:37:15;3.67;;;2.70;;
76978;SDS011;65911;47.502;19.148;2023-09-08T15:40:17;6.32;;;3.00;;
76978;SDS011;65911;47.502;19.148;2023-09-08T15:43:19;5.55;;;2.90;;
76978;SDS011;65911;47.502;19.148;2023-09-08T15:46:21;4.83;;;2.73;;
76978;SDS011;65911;47.502;19.148;2023-09-08T15:49:24;4.28;;;2.63;;
76978;SDS011;65911;47.502;19.148;2023-09-08T15:52:29;3.78;;;2.72;;
76978;SDS011;65911;47.502;19.148;2023-09-08T15:55:32;4.57;;;2.78;;
76978;SDS011;65911;47.502;19.148;2023-09-08T15:58:34;4.65;;;2.90;;
76978;SDS011;65911;47.502;19.148;2023-09-08T16:01:39;4.85;;;3.08;;
76978;SDS011;65911;47.502;19.148;2023-09-08T16:04:41;4.88;;;2.65;;
76978;SDS011;65911;47.502;19.148;2023-09-08T16:07:44;5.17;;;3.03;;
76978;SDS011;65911;47.502;19.148;2023-09-08T16:10:47;6.05;;;3.03;;
76978;SDS011;65911;47.502;19.148;2023-09-08T16:13:52;5.63;;;2.85;;
76978;SDS011;65911;47.502;19.148;2023-09-08T16:16:54;6.15;;;3.00;;
76978;SDS011;65911;47.502;19.148;2023-09-08T16:19:59;6.23;;;3.20;;
76978;SDS011;65911;47.502;19.148;2023-09-08T16:23:02;5.28;;;3.03;;
76978;SDS011;65911;47.502;19.148;2023-09-08T16:26:05;6.00;;;2.95;;
76978;SDS011;65911;47.502;19.148;2023-09-08T16:29:07;4.13;;;2.97;;
76978;SDS011;65911;47.502;19.148;2023-09-08T16:32:10;5.28;;;2.97;;
76978;SDS011;65911;47.502;19.148;2023-09-08T16:35:12;4.18;;;2.90;;
76978;SDS011;65911;47.502;19.148;2023-09-08T16:38:15;7.18;;;2.70;;
76978;SDS011;65911;47.502;19.148;2023-09-08T16:41:17;4.77;;;2.70;;
76978;SDS011;65911;47.502;19.148;2023-09-08T16:44:19;5.82;;;2.65;;
76978;SDS011;65911;47.502;19.148;2023-09-08T16:47:21;4.10;;;2.58;;
76978;SDS011;65911;47.502;19.148;2023-09-08T16:50:27;4.20;;;2.88;;
76978;SDS011;65911;47.502;19.148;2023-09-08T16:53:29;4.18;;;2.55;;
76978;SDS011;65911;47.502;19.148;2023-09-08T16:56:32;6.10;;;2.90;;
76978;SDS011;65911;47.502;19.148;2023-09-08T16:59:34;4.13;;;2.53;;
76978;SDS011;65911;47.502;19.148;2023-09-08T17:02:36;7.60;;;3.07;;
76978;SDS011;65911;47.502;19.148;2023-09-08T17:05:39;4.05;;;2.70;;
76978;SDS011;65911;47.502;19.148;2023-09-08T17:08:44;4.80;;;2.90;;
76978;SDS011;65911;47.502;19.148;2023-09-08T17:11:47;7.47;;;3.20;;
76978;SDS011;65911;47.502;19.148;2023-09-08T17:14:49;6.97;;;2.93;;
76978;SDS011;65911;47.502;19.148;2023-09-08T17:17:51;5.70;;;3.20;;
76978;SDS011;65911;47.502;19.148;2023-09-08T17:20:54;7.03;;;3.20;;
76978;SDS011;65911;47.502;19.148;2023-09-08T17:23:58;5.63;;;2.87;;
76978;SDS011;65911;47.502;19.148;2023-09-08T17:27:00;5.50;;;3.00;;
76978;SDS011;65911;47.502;19.148;2023-09-08T17:30:03;6.25;;;3.13;;
76978;SDS011;65911;47.502;19.148;2023-09-08T17:33:05;6.00;;;3.63;;
76978;SDS011;65911;47.502;19.148;2023-09-08T17:36:08;9.95;;;3.63;;
76978;SDS011;65911;47.502;19.148;2023-09-08T17:39:10;8.18;;;5.10;;
76978;SDS011;65911;47.502;19.148;2023-09-08T17:42:12;7.68;;;4.18;;
76978;SDS011;65911;47.502;19.148;2023-09-08T17:45:14;5.90;;;3.90;;
76978;SDS011;65911;47.502;19.148;2023-09-08T17:48:17;6.57;;;4.55;;
76978;SDS011;65911;47.502;19.148;2023-09-08T17:51:19;6.32;;;4.10;;
76978;SDS011;65911;47.502;19.148;2023-09-08T17:54:22;8.97;;;4.03;;
76978;SDS011;65911;47.502;19.148;2023-09-08T17:57:25;8.85;;;4.60;;
76978;SDS011;65911;47.502;19.148;2023-09-08T18:00:27;7.97;;;4.10;;
76978;SDS011;65911;47.502;19.148;2023-09-08T18:03:29;6.93;;;3.88;;
76978;SDS011;65911;47.502;19.148;2023-09-08T18:06:32;6.75;;;3.47;;
76978;SDS011;65911;47.502;19.148;2023-09-08T18:09:34;7.50;;;3.75;;
76978;SDS011;65911;47.502;19.148;2023-09-08T18:12:39;7.95;;;3.33;;
76978;SDS011;65911;47.502;19.148;2023-09-08T18:15:41;8.50;;;3.60;;